sensor_id;sensor_type;location;lat;lon;timestamp;P1;durP1;ratioP1;P2;durP2;ratioP2
73557;SDS011;61829;53.286;10.434;2022-10-16T00:01:51;6.72;;;4.25;;
73557;SDS011;61829;53.286;10.434;2022-10-16T00:04:17;6.32;;;4.07;;
73557;SDS011;61829;53.286;10.434;2022-10-16T00:06:43;7.20;;;4.22;;
73557;SDS011;61829;53.286;10.434;2022-10-16T00:09:09;9.63;;;4.15;;
73557;SDS011;61829;53.286;10.434;2022-10-16T00:11:35;6.65;;;4.13;;
73557;SDS011;61829;53.286;10.434;2022-10-16T00:14:04;6.50;;;4.15;;
73557;SDS011;61829;53.286;10.434;2022-10-16T00:16:35;5.45;;;3.90;;
73557;SDS011;61829;53.286;10.434;2022-10-16T00:19:02;6.57;;;4.28;;
73557;SDS011;61829;53.286;10.434;2022-10-16T00:21:29;8.38;;;4.28;;
73557;SDS011;61829;53.286;10.434;2022-10-16T00:23:57;7.20;;;3.90;;
73557;SDS011;61829;53.286;10.434;2022-10-16T00:26:25;6.65;;;4.10;;
73557;SDS011;61829;53.286;10.434;2022-10-16T00:28:51;6.85;;;4.55;;
73557;SDS011;61829;53.286;10.434;2022-10-16T00:31:18;6.53;;;3.90;;
73557;SDS011;61829;53.286;10.434;2022-10-16T00:33:45;6.97;;;3.78;;
73557;SDS011;61829;53.286;10.434;2022-10-16T00:36:12;7.18;;;3.85;;
73557;SDS011;61829;53.286;10.434;2022-10-16T00:38:40;8.43;;;4.28;;
73557;SDS011;61829;53.286;10.434;2022-10-16T00:41:06;6.03;;;4.22;;
73557;SDS011;61829;53.286;10.434;2022-10-16T00:43:42;5.63;;;3.83;;
73557;SDS011;61829;53.286;10.434;2022-10-16T00:46:13;9.75;;;4.40;;
73557;SDS011;61829;53.286;10.434;2022-10-16T00:48:45;4.50;;;3.00;;
73557;SDS011;61829;53.286;10.434;2022-10-16T00:51:23;7.63;;;3.75;;
73557;SDS011;61829;53.286;10.434;2022-10-16T00:53:52;6.20;;;3.53;;
73557;SDS011;61829;53.286;10.434;2022-10-16T00:56:18;7.15;;;3.60;;
73557;SDS011;61829;53.286;10.434;2022-10-16T00:58:44;4.70;;;3.53;;
73557;SDS011;61829;53.286;10.434;2022-10-16T01:04:09;4.82;;;3.10;;
73557;SDS011;61829;53.286;10.434;2022-10-16T01:06:37;6.55;;;3.25;;
73557;SDS011;61829;53.286;10.434;2022-10-16T01:09:11;5.22;;;2.95;;
73557;SDS011;61829;53.286;10.434;2022-10-16T01:12:09;5.25;;;3.05;;
73557;SDS011;61829;53.286;10.434;2022-10-16T01:20:14;4.03;;;2.78;;
73557;SDS011;61829;53.286;10.434;2022-10-16T01:26:08;5.57;;;2.15;;
73557;SDS011;61829;53.286;10.434;2022-10-16T01:31:15;4.10;;;2.40;;
73557;SDS011;61829;53.286;10.434;2022-10-16T01:33:46;3.17;;;1.98;;
73557;SDS011;61829;53.286;10.434;2022-10-16T01:36:23;6.82;;;2.38;;
73557;SDS011;61829;53.286;10.434;2022-10-16T01:38:52;3.30;;;1.90;;
73557;SDS011;61829;53.286;10.434;2022-10-16T01:41:28;4.32;;;2.22;;
73557;SDS011;61829;53.286;10.434;2022-10-16T01:44:02;4.80;;;1.85;;
73557;SDS011;61829;53.286;10.434;2022-10-16T01:46:49;5.45;;;2.30;;
73557;SDS011;61829;53.286;10.434;2022-10-16T01:49:17;4.47;;;2.13;;
73557;SDS011;61829;53.286;10.434;2022-10-16T01:51:46;5.35;;;1.80;;
73557;SDS011;61829;53.286;10.434;2022-10-16T01:54:16;4.22;;;2.08;;
73557;SDS011;61829;53.286;10.434;2022-10-16T01:56:45;4.18;;;2.00;;
73557;SDS011;61829;53.286;10.434;2022-10-16T01:59:13;3.03;;;1.80;;
73557;SDS011;61829;53.286;10.434;2022-10-16T02:01:44;3.88;;;1.80;;
73557;SDS011;61829;53.286;10.434;2022-10-16T02:04:22;2.83;;;1.77;;
73557;SDS011;61829;53.286;10.434;2022-10-16T02:06:53;2.97;;;1.73;;
73557;SDS011;61829;53.286;10.434;2022-10-16T02:09:20;3.13;;;1.52;;
73557;SDS011;61829;53.286;10.434;2022-10-16T02:11:46;4.05;;;1.85;;
73557;SDS011;61829;53.286;10.434;2022-10-16T02:14:15;3.85;;;1.90;;
73557;SDS011;61829;53.286;10.434;2022-10-16T02:16:42;2.65;;;1.65;;
73557;SDS011;61829;53.286;10.434;2022-10-16T02:19:10;3.65;;;1.65;;
73557;SDS011;61829;53.286;10.434;2022-10-16T02:21:42;4.03;;;1.60;;
73557;SDS011;61829;53.286;10.434;2022-10-16T02:24:40;4.00;;;1.50;;
73557;SDS011;61829;53.286;10.434;2022-10-16T02:27:16;2.25;;;1.35;;
73557;SDS011;61829;53.286;10.434;2022-10-16T02:32:39;4.32;;;1.67;;
73557;SDS011;61829;53.286;10.434;2022-10-16T02:35:09;5.20;;;1.88;;
73557;SDS011;61829;53.286;10.434;2022-10-16T02:37:35;2.97;;;1.30;;
73557;SDS011;61829;53.286;10.434;2022-10-16T02:40:03;1.95;;;1.10;;
73557;SDS011;61829;53.286;10.434;2022-10-16T02:45:01;3.55;;;1.33;;
73557;SDS011;61829;53.286;10.434;2022-10-16T02:47:28;5.32;;;1.20;;
73557;SDS011;61829;53.286;10.434;2022-10-16T02:49:53;6.03;;;1.42;;
73557;SDS011;61829;53.286;10.434;2022-10-16T02:52:19;2.55;;;1.40;;
73557;SDS011;61829;53.286;10.434;2022-10-16T02:54:45;3.10;;;1.27;;
73557;SDS011;61829;53.286;10.434;2022-10-16T02:57:11;5.45;;;1.30;;
73557;SDS011;61829;53.286;10.434;2022-10-16T02:59:37;1.88;;;1.25;;
73557;SDS011;61829;53.286;10.434;2022-10-16T03:02:03;3.25;;;1.50;;
73557;SDS011;61829;53.286;10.434;2022-10-16T03:04:29;2.90;;;1.30;;
73557;SDS011;61829;53.286;10.434;2022-10-16T03:06:55;2.90;;;1.40;;
73557;SDS011;61829;53.286;10.434;2022-10-16T03:09:21;5.05;;;1.33;;
73557;SDS011;61829;53.286;10.434;2022-10-16T03:11:48;2.92;;;1.30;;
73557;SDS011;61829;53.286;10.434;2022-10-16T03:14:14;4.03;;;1.40;;
73557;SDS011;61829;53.286;10.434;2022-10-16T03:16:39;3.47;;;1.60;;
73557;SDS011;61829;53.286;10.434;2022-10-16T03:19:05;4.55;;;1.50;;
73557;SDS011;61829;53.286;10.434;2022-10-16T03:21:31;4.38;;;1.30;;
73557;SDS011;61829;53.286;10.434;2022-10-16T03:23:57;7.10;;;1.35;;
73557;SDS011;61829;53.286;10.434;2022-10-16T03:26:23;2.22;;;1.33;;
73557;SDS011;61829;53.286;10.434;2022-10-16T03:28:49;4.85;;;1.40;;
73557;SDS011;61829;53.286;10.434;2022-10-16T03:31:15;4.47;;;1.48;;
73557;SDS011;61829;53.286;10.434;2022-10-16T03:33:41;2.92;;;1.30;;
73557;SDS011;61829;53.286;10.434;2022-10-16T03:36:08;4.90;;;1.77;;
73557;SDS011;61829;53.286;10.434;2022-10-16T03:40:59;5.50;;;1.33;;
73557;SDS011;61829;53.286;10.434;2022-10-16T03:43:25;3.72;;;1.52;;
73557;SDS011;61829;53.286;10.434;2022-10-16T03:45:51;4.88;;;1.60;;
73557;SDS011;61829;53.286;10.434;2022-10-16T03:48:17;6.30;;;1.40;;
73557;SDS011;61829;53.286;10.434;2022-10-16T03:50:44;3.78;;;1.40;;
73557;SDS011;61829;53.286;10.434;2022-10-16T03:53:10;3.40;;;1.50;;
73557;SDS011;61829;53.286;10.434;2022-10-16T03:55:35;3.58;;;1.50;;
73557;SDS011;61829;53.286;10.434;2022-10-16T03:58:02;8.57;;;1.73;;
73557;SDS011;61829;53.286;10.434;2022-10-16T04:00:29;2.95;;;1.40;;
73557;SDS011;61829;53.286;10.434;2022-10-16T04:02:55;4.65;;;1.70;;
73557;SDS011;61829;53.286;10.434;2022-10-16T04:05:20;3.63;;;1.52;;
73557;SDS011;61829;53.286;10.434;2022-10-16T04:07:47;4.00;;;1.35;;
73557;SDS011;61829;53.286;10.434;2022-10-16T04:10:12;3.13;;;1.40;;
73557;SDS011;61829;53.286;10.434;2022-10-16T04:12:38;6.15;;;1.55;;
73557;SDS011;61829;53.286;10.434;2022-10-16T04:15:04;4.07;;;1.33;;
73557;SDS011;61829;53.286;10.434;2022-10-16T04:17:30;3.50;;;1.35;;
73557;SDS011;61829;53.286;10.434;2022-10-16T04:19:56;4.20;;;1.42;;
73557;SDS011;61829;53.286;10.434;2022-10-16T04:22:22;2.03;;;1.40;;
73557;SDS011;61829;53.286;10.434;2022-10-16T04:24:47;4.97;;;1.42;;
73557;SDS011;61829;53.286;10.434;2022-10-16T04:27:13;4.80;;;1.48;;
73557;SDS011;61829;53.286;10.434;2022-10-16T04:29:39;2.67;;;1.40;;
73557;SDS011;61829;53.286;10.434;2022-10-16T04:32:05;3.72;;;1.48;;
73557;SDS011;61829;53.286;10.434;2022-10-16T04:34:34;4.95;;;1.55;;
73557;SDS011;61829;53.286;10.434;2022-10-16T04:37:01;4.15;;;1.30;;
73557;SDS011;61829;53.286;10.434;2022-10-16T04:39:26;4.15;;;1.30;;
73557;SDS011;61829;53.286;10.434;2022-10-16T04:41:52;4.45;;;1.38;;
73557;SDS011;61829;53.286;10.434;2022-10-16T04:44:18;4.13;;;1.63;;
73557;SDS011;61829;53.286;10.434;2022-10-16T04:46:44;3.42;;;1.48;;
73557;SDS011;61829;53.286;10.434;2022-10-16T04:49:10;8.20;;;2.13;;
73557;SDS011;61829;53.286;10.434;2022-10-16T04:51:36;3.75;;;1.73;;
73557;SDS011;61829;53.286;10.434;2022-10-16T04:54:01;5.45;;;1.50;;
73557;SDS011;61829;53.286;10.434;2022-10-16T04:56:27;3.28;;;1.55;;
73557;SDS011;61829;53.286;10.434;2022-10-16T04:58:53;5.03;;;1.60;;
73557;SDS011;61829;53.286;10.434;2022-10-16T05:01:19;4.63;;;1.42;;
73557;SDS011;61829;53.286;10.434;2022-10-16T05:03:45;6.88;;;1.67;;
73557;SDS011;61829;53.286;10.434;2022-10-16T05:06:11;2.38;;;1.48;;
73557;SDS011;61829;53.286;10.434;2022-10-16T05:08:37;4.28;;;1.40;;
73557;SDS011;61829;53.286;10.434;2022-10-16T05:11:02;3.97;;;1.58;;
73557;SDS011;61829;53.286;10.434;2022-10-16T05:13:28;5.00;;;1.90;;
73557;SDS011;61829;53.286;10.434;2022-10-16T05:15:54;7.60;;;1.80;;
73557;SDS011;61829;53.286;10.434;2022-10-16T05:18:20;5.03;;;1.42;;
73557;SDS011;61829;53.286;10.434;2022-10-16T05:20:46;4.22;;;1.60;;
73557;SDS011;61829;53.286;10.434;2022-10-16T05:23:12;5.43;;;1.60;;
73557;SDS011;61829;53.286;10.434;2022-10-16T05:25:38;3.33;;;1.50;;
73557;SDS011;61829;53.286;10.434;2022-10-16T05:28:04;7.25;;;1.80;;
73557;SDS011;61829;53.286;10.434;2022-10-16T05:30:30;5.57;;;2.00;;
73557;SDS011;61829;53.286;10.434;2022-10-16T05:32:56;4.65;;;1.70;;
73557;SDS011;61829;53.286;10.434;2022-10-16T05:35:22;6.50;;;1.80;;
73557;SDS011;61829;53.286;10.434;2022-10-16T05:37:48;3.25;;;1.75;;
73557;SDS011;61829;53.286;10.434;2022-10-16T05:40:14;4.72;;;1.80;;
73557;SDS011;61829;53.286;10.434;2022-10-16T05:42:40;5.45;;;2.00;;
73557;SDS011;61829;53.286;10.434;2022-10-16T05:45:06;7.10;;;1.77;;
73557;SDS011;61829;53.286;10.434;2022-10-16T05:47:35;2.50;;;1.50;;
73557;SDS011;61829;53.286;10.434;2022-10-16T05:50:01;4.22;;;1.90;;
73557;SDS011;61829;53.286;10.434;2022-10-16T05:52:26;3.58;;;1.75;;
73557;SDS011;61829;53.286;10.434;2022-10-16T05:54:52;4.22;;;1.48;;
73557;SDS011;61829;53.286;10.434;2022-10-16T05:57:19;3.83;;;1.67;;
73557;SDS011;61829;53.286;10.434;2022-10-16T05:59:45;6.45;;;2.13;;
73557;SDS011;61829;53.286;10.434;2022-10-16T06:02:14;4.10;;;1.55;;
73557;SDS011;61829;53.286;10.434;2022-10-16T06:04:41;5.90;;;2.03;;
73557;SDS011;61829;53.286;10.434;2022-10-16T06:07:15;3.67;;;1.55;;
73557;SDS011;61829;53.286;10.434;2022-10-16T06:09:41;4.00;;;2.17;;
73557;SDS011;61829;53.286;10.434;2022-10-16T06:12:07;3.47;;;1.70;;
73557;SDS011;61829;53.286;10.434;2022-10-16T06:14:33;4.13;;;1.80;;
73557;SDS011;61829;53.286;10.434;2022-10-16T06:16:59;3.85;;;1.90;;
73557;SDS011;61829;53.286;10.434;2022-10-16T06:19:25;5.80;;;1.80;;
73557;SDS011;61829;53.286;10.434;2022-10-16T06:21:50;4.22;;;2.13;;
73557;SDS011;61829;53.286;10.434;2022-10-16T06:24:16;3.63;;;1.65;;
73557;SDS011;61829;53.286;10.434;2022-10-16T06:26:50;4.35;;;1.80;;
73557;SDS011;61829;53.286;10.434;2022-10-16T06:29:16;4.85;;;2.13;;
73557;SDS011;61829;53.286;10.434;2022-10-16T06:31:42;5.05;;;1.95;;
73557;SDS011;61829;53.286;10.434;2022-10-16T06:34:11;5.35;;;1.90;;
73557;SDS011;61829;53.286;10.434;2022-10-16T06:36:37;5.05;;;1.63;;
73557;SDS011;61829;53.286;10.434;2022-10-16T06:39:05;5.78;;;1.83;;
73557;SDS011;61829;53.286;10.434;2022-10-16T06:41:33;4.63;;;1.63;;
73557;SDS011;61829;53.286;10.434;2022-10-16T06:44:00;6.95;;;1.90;;
73557;SDS011;61829;53.286;10.434;2022-10-16T06:46:27;4.15;;;1.92;;
73557;SDS011;61829;53.286;10.434;2022-10-16T06:48:53;3.95;;;1.77;;
73557;SDS011;61829;53.286;10.434;2022-10-16T06:51:20;5.75;;;1.55;;
73557;SDS011;61829;53.286;10.434;2022-10-16T06:53:48;6.25;;;1.77;;
73557;SDS011;61829;53.286;10.434;2022-10-16T06:56:17;5.90;;;2.00;;
73557;SDS011;61829;53.286;10.434;2022-10-16T06:58:45;4.93;;;1.60;;
73557;SDS011;61829;53.286;10.434;2022-10-16T07:04:35;3.83;;;1.80;;
73557;SDS011;61829;53.286;10.434;2022-10-16T07:07:01;3.33;;;1.83;;
73557;SDS011;61829;53.286;10.434;2022-10-16T07:09:27;7.13;;;2.10;;
73557;SDS011;61829;53.286;10.434;2022-10-16T07:11:53;4.35;;;1.90;;
73557;SDS011;61829;53.286;10.434;2022-10-16T07:14:20;5.60;;;1.63;;
73557;SDS011;61829;53.286;10.434;2022-10-16T07:16:47;4.15;;;1.90;;
73557;SDS011;61829;53.286;10.434;2022-10-16T07:19:14;6.53;;;2.00;;
73557;SDS011;61829;53.286;10.434;2022-10-16T07:21:42;5.55;;;2.05;;
73557;SDS011;61829;53.286;10.434;2022-10-16T07:24:13;3.22;;;1.73;;
73557;SDS011;61829;53.286;10.434;2022-10-16T07:26:42;3.75;;;1.90;;
73557;SDS011;61829;53.286;10.434;2022-10-16T07:29:19;4.50;;;1.70;;
73557;SDS011;61829;53.286;10.434;2022-10-16T07:31:47;5.40;;;1.90;;
73557;SDS011;61829;53.286;10.434;2022-10-16T07:34:14;4.18;;;2.20;;
73557;SDS011;61829;53.286;10.434;2022-10-16T07:36:42;3.42;;;1.88;;
73557;SDS011;61829;53.286;10.434;2022-10-16T07:39:08;3.78;;;1.70;;
73557;SDS011;61829;53.286;10.434;2022-10-16T07:41:34;5.55;;;1.85;;
73557;SDS011;61829;53.286;10.434;2022-10-16T07:44:02;6.55;;;2.10;;
73557;SDS011;61829;53.286;10.434;2022-10-16T07:46:29;8.20;;;2.03;;
73557;SDS011;61829;53.286;10.434;2022-10-16T07:48:55;4.93;;;2.28;;
73557;SDS011;61829;53.286;10.434;2022-10-16T07:51:22;5.47;;;1.65;;
73557;SDS011;61829;53.286;10.434;2022-10-16T07:53:49;4.03;;;1.77;;
73557;SDS011;61829;53.286;10.434;2022-10-16T07:56:16;3.20;;;1.60;;
73557;SDS011;61829;53.286;10.434;2022-10-16T07:58:43;3.55;;;1.42;;
73557;SDS011;61829;53.286;10.434;2022-10-16T08:01:13;4.03;;;1.35;;
73557;SDS011;61829;53.286;10.434;2022-10-16T08:03:44;2.80;;;1.40;;
73557;SDS011;61829;53.286;10.434;2022-10-16T08:06:11;7.07;;;1.65;;
73557;SDS011;61829;53.286;10.434;2022-10-16T08:08:38;4.30;;;1.60;;
73557;SDS011;61829;53.286;10.434;2022-10-16T08:11:03;2.78;;;1.30;;
73557;SDS011;61829;53.286;10.434;2022-10-16T08:13:30;3.42;;;1.55;;
73557;SDS011;61829;53.286;10.434;2022-10-16T08:18:22;4.40;;;1.75;;
73557;SDS011;61829;53.286;10.434;2022-10-16T08:20:54;4.25;;;1.42;;
73557;SDS011;61829;53.286;10.434;2022-10-16T08:23:24;3.60;;;1.50;;
73557;SDS011;61829;53.286;10.434;2022-10-16T08:25:51;1.70;;;1.00;;
73557;SDS011;61829;53.286;10.434;2022-10-16T08:28:19;3.95;;;1.52;;
73557;SDS011;61829;53.286;10.434;2022-10-16T08:30:45;3.25;;;1.23;;
73557;SDS011;61829;53.286;10.434;2022-10-16T08:33:11;3.15;;;1.40;;
73557;SDS011;61829;53.286;10.434;2022-10-16T08:35:37;2.90;;;1.20;;
73557;SDS011;61829;53.286;10.434;2022-10-16T08:38:03;8.85;;;2.67;;
73557;SDS011;61829;53.286;10.434;2022-10-16T08:40:30;4.50;;;1.40;;
73557;SDS011;61829;53.286;10.434;2022-10-16T08:56:23;1.92;;;1.15;;
73557;SDS011;61829;53.286;10.434;2022-10-16T08:58:51;2.67;;;1.20;;
73557;SDS011;61829;53.286;10.434;2022-10-16T09:01:19;3.95;;;1.33;;
73557;SDS011;61829;53.286;10.434;2022-10-16T09:04:07;4.35;;;1.27;;
73557;SDS011;61829;53.286;10.434;2022-10-16T09:23:14;2.63;;;1.13;;
73557;SDS011;61829;53.286;10.434;2022-10-16T09:25:52;2.22;;;1.00;;
73557;SDS011;61829;53.286;10.434;2022-10-16T09:28:20;2.35;;;1.00;;
73557;SDS011;61829;53.286;10.434;2022-10-16T09:30:46;2.55;;;0.90;;
73557;SDS011;61829;53.286;10.434;2022-10-16T09:33:18;1.45;;;1.00;;
73557;SDS011;61829;53.286;10.434;2022-10-16T09:35:47;1.73;;;0.93;;
73557;SDS011;61829;53.286;10.434;2022-10-16T09:38:22;1.17;;;0.88;;
73557;SDS011;61829;53.286;10.434;2022-10-16T09:40:53;2.30;;;0.95;;
73557;SDS011;61829;53.286;10.434;2022-10-16T09:43:25;1.70;;;0.95;;
73557;SDS011;61829;53.286;10.434;2022-10-16T09:45:58;1.65;;;0.90;;
73557;SDS011;61829;53.286;10.434;2022-10-16T09:48:30;2.92;;;0.85;;
73557;SDS011;61829;53.286;10.434;2022-10-16T09:51:02;3.13;;;1.40;;
73557;SDS011;61829;53.286;10.434;2022-10-16T09:53:40;4.82;;;0.90;;
73557;SDS011;61829;53.286;10.434;2022-10-16T09:56:11;1.52;;;0.82;;
73557;SDS011;61829;53.286;10.434;2022-10-16T09:58:50;4.95;;;1.00;;
73557;SDS011;61829;53.286;10.434;2022-10-16T10:01:18;4.88;;;1.20;;
73557;SDS011;61829;53.286;10.434;2022-10-16T10:03:45;3.40;;;0.90;;
73557;SDS011;61829;53.286;10.434;2022-10-16T10:06:17;1.50;;;0.70;;
73557;SDS011;61829;53.286;10.434;2022-10-16T10:08:54;2.70;;;0.98;;
73557;SDS011;61829;53.286;10.434;2022-10-16T10:11:36;6.18;;;1.00;;
73557;SDS011;61829;53.286;10.434;2022-10-16T10:17:18;1.48;;;0.80;;
73557;SDS011;61829;53.286;10.434;2022-10-16T10:46:51;3.03;;;1.02;;
73557;SDS011;61829;53.286;10.434;2022-10-16T10:55:14;3.40;;;1.00;;
73557;SDS011;61829;53.286;10.434;2022-10-16T11:05:46;4.30;;;0.98;;
73557;SDS011;61829;53.286;10.434;2022-10-16T11:08:19;1.75;;;0.80;;
73557;SDS011;61829;53.286;10.434;2022-10-16T11:13:28;2.10;;;1.05;;
73557;SDS011;61829;53.286;10.434;2022-10-16T11:16:00;2.45;;;0.80;;
73557;SDS011;61829;53.286;10.434;2022-10-16T11:18:42;2.22;;;0.90;;
73557;SDS011;61829;53.286;10.434;2022-10-16T11:21:26;3.13;;;0.80;;
73557;SDS011;61829;53.286;10.434;2022-10-16T11:24:09;1.70;;;1.00;;
73557;SDS011;61829;53.286;10.434;2022-10-16T11:26:44;2.05;;;0.77;;
73557;SDS011;61829;53.286;10.434;2022-10-16T11:29:15;2.42;;;0.63;;
73557;SDS011;61829;53.286;10.434;2022-10-16T11:31:49;2.17;;;0.90;;
73557;SDS011;61829;53.286;10.434;2022-10-16T11:34:31;3.67;;;0.80;;
73557;SDS011;61829;53.286;10.434;2022-10-16T11:39:58;1.73;;;0.90;;
73557;SDS011;61829;53.286;10.434;2022-10-16T11:42:32;3.63;;;0.70;;
73557;SDS011;61829;53.286;10.434;2022-10-16T11:45:15;2.47;;;0.90;;
73557;SDS011;61829;53.286;10.434;2022-10-16T11:51:17;2.20;;;0.90;;
73557;SDS011;61829;53.286;10.434;2022-10-16T11:53:57;5.15;;;1.10;;
73557;SDS011;61829;53.286;10.434;2022-10-16T11:56:43;3.28;;;0.90;;
73557;SDS011;61829;53.286;10.434;2022-10-16T12:04:46;1.85;;;0.82;;
73557;SDS011;61829;53.286;10.434;2022-10-16T12:07:22;2.17;;;1.13;;
73557;SDS011;61829;53.286;10.434;2022-10-16T12:09:57;2.70;;;0.90;;
73557;SDS011;61829;53.286;10.434;2022-10-16T12:15:02;3.28;;;0.80;;
73557;SDS011;61829;53.286;10.434;2022-10-16T12:17:44;2.63;;;0.93;;
73557;SDS011;61829;53.286;10.434;2022-10-16T12:25:32;1.60;;;0.80;;
73557;SDS011;61829;53.286;10.434;2022-10-16T12:28:01;2.60;;;0.93;;
73557;SDS011;61829;53.286;10.434;2022-10-16T12:30:29;2.08;;;0.90;;
73557;SDS011;61829;53.286;10.434;2022-10-16T12:32:58;2.75;;;0.82;;
73557;SDS011;61829;53.286;10.434;2022-10-16T12:35:31;2.85;;;0.73;;
73557;SDS011;61829;53.286;10.434;2022-10-16T12:38:07;2.20;;;0.70;;
73557;SDS011;61829;53.286;10.434;2022-10-16T12:40:41;1.02;;;0.68;;
73557;SDS011;61829;53.286;10.434;2022-10-16T12:48:34;2.63;;;1.00;;
73557;SDS011;61829;53.286;10.434;2022-10-16T12:51:12;3.38;;;1.02;;
73557;SDS011;61829;53.286;10.434;2022-10-16T12:56:57;2.20;;;0.80;;
73557;SDS011;61829;53.286;10.434;2022-10-16T13:22:12;3.20;;;1.10;;
73557;SDS011;61829;53.286;10.434;2022-10-16T13:27:41;6.78;;;2.85;;
73557;SDS011;61829;53.286;10.434;2022-10-16T13:32:38;1.88;;;0.90;;
73557;SDS011;61829;53.286;10.434;2022-10-16T13:35:17;4.82;;;1.20;;
73557;SDS011;61829;53.286;10.434;2022-10-16T13:37:46;3.25;;;1.08;;
73557;SDS011;61829;53.286;10.434;2022-10-16T13:40:17;5.72;;;1.20;;
73557;SDS011;61829;53.286;10.434;2022-10-16T13:42:46;1.65;;;0.90;;
73557;SDS011;61829;53.286;10.434;2022-10-16T13:45:21;3.28;;;0.95;;
73557;SDS011;61829;53.286;10.434;2022-10-16T13:47:49;4.35;;;1.17;;
73557;SDS011;61829;53.286;10.434;2022-10-16T13:50:16;2.55;;;1.05;;
73557;SDS011;61829;53.286;10.434;2022-10-16T13:52:44;3.78;;;1.20;;
73557;SDS011;61829;53.286;10.434;2022-10-16T13:55:13;2.58;;;1.10;;
73557;SDS011;61829;53.286;10.434;2022-10-16T13:57:41;3.47;;;0.70;;
73557;SDS011;61829;53.286;10.434;2022-10-16T14:00:22;2.53;;;0.80;;
73557;SDS011;61829;53.286;10.434;2022-10-16T14:02:57;6.18;;;1.10;;
73557;SDS011;61829;53.286;10.434;2022-10-16T14:05:28;2.03;;;0.98;;
73557;SDS011;61829;53.286;10.434;2022-10-16T14:07:54;3.13;;;0.80;;
73557;SDS011;61829;53.286;10.434;2022-10-16T14:10:28;4.88;;;1.10;;
73557;SDS011;61829;53.286;10.434;2022-10-16T14:13:03;1.50;;;0.98;;
73557;SDS011;61829;53.286;10.434;2022-10-16T14:15:32;2.95;;;0.85;;
73557;SDS011;61829;53.286;10.434;2022-10-16T14:18:02;5.40;;;1.33;;
73557;SDS011;61829;53.286;10.434;2022-10-16T14:20:30;4.93;;;0.90;;
73557;SDS011;61829;53.286;10.434;2022-10-16T14:23:00;1.73;;;0.73;;
73557;SDS011;61829;53.286;10.434;2022-10-16T14:25:30;3.70;;;0.90;;
73557;SDS011;61829;53.286;10.434;2022-10-16T14:30:29;3.15;;;0.98;;
73557;SDS011;61829;53.286;10.434;2022-10-16T14:33:00;3.42;;;1.00;;
73557;SDS011;61829;53.286;10.434;2022-10-16T14:35:28;2.83;;;1.02;;
73557;SDS011;61829;53.286;10.434;2022-10-16T14:37:55;2.63;;;1.00;;
73557;SDS011;61829;53.286;10.434;2022-10-16T14:40:23;3.72;;;0.95;;
73557;SDS011;61829;53.286;10.434;2022-10-16T14:42:51;3.03;;;1.00;;
73557;SDS011;61829;53.286;10.434;2022-10-16T14:45:18;4.30;;;0.98;;
73557;SDS011;61829;53.286;10.434;2022-10-16T14:47:50;3.22;;;0.80;;
73557;SDS011;61829;53.286;10.434;2022-10-16T14:50:21;4.03;;;1.08;;
73557;SDS011;61829;53.286;10.434;2022-10-16T14:52:47;3.08;;;1.00;;
73557;SDS011;61829;53.286;10.434;2022-10-16T14:55:13;3.13;;;1.30;;
73557;SDS011;61829;53.286;10.434;2022-10-16T14:57:40;3.72;;;1.13;;
73557;SDS011;61829;53.286;10.434;2022-10-16T15:00:09;2.50;;;0.90;;
73557;SDS011;61829;53.286;10.434;2022-10-16T15:02:49;3.50;;;0.90;;
73557;SDS011;61829;53.286;10.434;2022-10-16T15:05:23;1.20;;;0.77;;
73557;SDS011;61829;53.286;10.434;2022-10-16T15:07:53;1.55;;;0.80;;
73557;SDS011;61829;53.286;10.434;2022-10-16T15:10:21;4.68;;;1.10;;
73557;SDS011;61829;53.286;10.434;2022-10-16T15:12:49;5.78;;;0.90;;
73557;SDS011;61829;53.286;10.434;2022-10-16T15:17:55;4.47;;;0.90;;
73557;SDS011;61829;53.286;10.434;2022-10-16T15:20:23;3.20;;;1.00;;
73557;SDS011;61829;53.286;10.434;2022-10-16T15:22:50;1.40;;;0.82;;
73557;SDS011;61829;53.286;10.434;2022-10-16T15:28:07;3.22;;;1.20;;
73557;SDS011;61829;53.286;10.434;2022-10-16T15:30:35;3.17;;;0.80;;
73557;SDS011;61829;53.286;10.434;2022-10-16T15:33:02;4.15;;;0.90;;
73557;SDS011;61829;53.286;10.434;2022-10-16T15:35:29;3.17;;;1.02;;
73557;SDS011;61829;53.286;10.434;2022-10-16T15:37:55;3.00;;;1.00;;
73557;SDS011;61829;53.286;10.434;2022-10-16T15:40:21;0.77;;;0.70;;
73557;SDS011;61829;53.286;10.434;2022-10-16T15:42:48;5.35;;;1.00;;
73557;SDS011;61829;53.286;10.434;2022-10-16T15:45:15;4.00;;;1.10;;
73557;SDS011;61829;53.286;10.434;2022-10-16T15:47:41;6.38;;;1.10;;
73557;SDS011;61829;53.286;10.434;2022-10-16T15:50:17;2.35;;;1.08;;
73557;SDS011;61829;53.286;10.434;2022-10-16T15:52:43;3.97;;;0.80;;
73557;SDS011;61829;53.286;10.434;2022-10-16T15:55:11;4.78;;;1.20;;
73557;SDS011;61829;53.286;10.434;2022-10-16T15:57:38;3.47;;;1.10;;
73557;SDS011;61829;53.286;10.434;2022-10-16T16:00:07;4.43;;;1.00;;
73557;SDS011;61829;53.286;10.434;2022-10-16T16:02:43;3.38;;;1.05;;
73557;SDS011;61829;53.286;10.434;2022-10-16T16:05:10;4.82;;;1.00;;
73557;SDS011;61829;53.286;10.434;2022-10-16T16:07:39;4.18;;;1.20;;
73557;SDS011;61829;53.286;10.434;2022-10-16T16:10:08;3.67;;;1.10;;
73557;SDS011;61829;53.286;10.434;2022-10-16T16:12:35;4.38;;;2.03;;
73557;SDS011;61829;53.286;10.434;2022-10-16T16:15:03;5.18;;;1.20;;
73557;SDS011;61829;53.286;10.434;2022-10-16T16:17:30;3.63;;;1.17;;
73557;SDS011;61829;53.286;10.434;2022-10-16T16:19:57;6.60;;;1.77;;
73557;SDS011;61829;53.286;10.434;2022-10-16T16:22:23;7.10;;;1.92;;
73557;SDS011;61829;53.286;10.434;2022-10-16T16:24:49;4.40;;;1.95;;
73557;SDS011;61829;53.286;10.434;2022-10-16T16:27:15;4.65;;;1.90;;
73557;SDS011;61829;53.286;10.434;2022-10-16T16:29:41;7.03;;;1.85;;
73557;SDS011;61829;53.286;10.434;2022-10-16T16:32:07;5.03;;;1.73;;
73557;SDS011;61829;53.286;10.434;2022-10-16T16:34:34;6.85;;;1.45;;
73557;SDS011;61829;53.286;10.434;2022-10-16T16:37:00;5.15;;;1.33;;
73557;SDS011;61829;53.286;10.434;2022-10-16T16:39:27;10.65;;;1.50;;
73557;SDS011;61829;53.286;10.434;2022-10-16T16:41:54;2.25;;;1.15;;
73557;SDS011;61829;53.286;10.434;2022-10-16T16:44:22;3.33;;;1.17;;
73557;SDS011;61829;53.286;10.434;2022-10-16T16:46:47;5.35;;;1.70;;
73557;SDS011;61829;53.286;10.434;2022-10-16T16:49:13;3.72;;;1.65;;
73557;SDS011;61829;53.286;10.434;2022-10-16T16:51:40;7.10;;;1.70;;
73557;SDS011;61829;53.286;10.434;2022-10-16T16:54:07;4.78;;;1.50;;
73557;SDS011;61829;53.286;10.434;2022-10-16T16:56:34;4.25;;;1.55;;
73557;SDS011;61829;53.286;10.434;2022-10-16T16:59:00;4.57;;;1.58;;
73557;SDS011;61829;53.286;10.434;2022-10-16T17:01:27;5.45;;;2.63;;
73557;SDS011;61829;53.286;10.434;2022-10-16T17:03:55;30.48;;;14.23;;
73557;SDS011;61829;53.286;10.434;2022-10-16T17:06:25;37.42;;;18.33;;
73557;SDS011;61829;53.286;10.434;2022-10-16T17:08:52;38.08;;;18.73;;
73557;SDS011;61829;53.286;10.434;2022-10-16T17:11:21;42.25;;;22.30;;
73557;SDS011;61829;53.286;10.434;2022-10-16T17:13:49;30.90;;;14.77;;
73557;SDS011;61829;53.286;10.434;2022-10-16T17:16:16;40.38;;;20.70;;
73557;SDS011;61829;53.286;10.434;2022-10-16T17:18:44;31.17;;;14.82;;
73557;SDS011;61829;53.286;10.434;2022-10-16T17:21:09;36.58;;;15.02;;
73557;SDS011;61829;53.286;10.434;2022-10-16T17:23:36;31.92;;;15.35;;
73557;SDS011;61829;53.286;10.434;2022-10-16T17:26:07;13.88;;;6.32;;
73557;SDS011;61829;53.286;10.434;2022-10-16T17:28:37;25.55;;;11.07;;
73557;SDS011;61829;53.286;10.434;2022-10-16T17:31:19;20.33;;;9.68;;
73557;SDS011;61829;53.286;10.434;2022-10-16T17:33:47;18.38;;;9.65;;